sensor_id;sensor_type;location;lat;lon;timestamp;P1;durP1;ratioP1;P2;durP2;ratioP2
7485;SDS011;3784;54.098;9.998;2022-12-10T00:01:26;48.47;;;33.93;;
7485;SDS011;3784;54.098;9.998;2022-12-10T00:03:55;48.97;;;34.77;;
7485;SDS011;3784;54.098;9.998;2022-12-10T00:06:29;48.30;;;33.57;;
7485;SDS011;3784;54.098;9.998;2022-12-10T00:08:58;47.30;;;32.93;;
7485;SDS011;3784;54.098;9.998;2022-12-10T00:11:26;48.63;;;34.97;;
7485;SDS011;3784;54.098;9.998;2022-12-10T00:13:53;51.30;;;33.80;;
7485;SDS011;3784;54.098;9.998;2022-12-10T00:16:21;54.47;;;34.90;;
7485;SDS011;3784;54.098;9.998;2022-12-10T00:18:49;51.20;;;32.77;;
7485;SDS011;3784;54.098;9.998;2022-12-10T00:21:17;50.83;;;34.53;;
7485;SDS011;3784;54.098;9.998;2022-12-10T00:23:46;47.37;;;32.70;;
7485;SDS011;3784;54.098;9.998;2022-12-10T00:26:17;53.90;;;33.07;;
7485;SDS011;3784;54.098;9.998;2022-12-10T00:28:45;52.80;;;32.13;;
7485;SDS011;3784;54.098;9.998;2022-12-10T00:31:13;56.33;;;34.40;;
7485;SDS011;3784;54.098;9.998;2022-12-10T00:33:42;58.53;;;34.13;;
7485;SDS011;3784;54.098;9.998;2022-12-10T00:36:14;51.73;;;34.00;;
7485;SDS011;3784;54.098;9.998;2022-12-10T00:38:42;51.70;;;32.30;;
7485;SDS011;3784;54.098;9.998;2022-12-10T00:41:09;53.53;;;33.67;;
7485;SDS011;3784;54.098;9.998;2022-12-10T00:43:36;54.07;;;33.13;;
7485;SDS011;3784;54.098;9.998;2022-12-10T00:46:03;52.60;;;32.33;;
7485;SDS011;3784;54.098;9.998;2022-12-10T00:48:30;55.90;;;32.57;;
7485;SDS011;3784;54.098;9.998;2022-12-10T00:51:01;54.00;;;34.17;;
7485;SDS011;3784;54.098;9.998;2022-12-10T00:53:33;53.47;;;33.00;;
7485;SDS011;3784;54.098;9.998;2022-12-10T00:56:00;54.80;;;33.63;;
7485;SDS011;3784;54.098;9.998;2022-12-10T00:58:27;53.27;;;32.77;;
7485;SDS011;3784;54.098;9.998;2022-12-10T01:01:06;58.20;;;33.83;;
7485;SDS011;3784;54.098;9.998;2022-12-10T01:03:40;55.30;;;32.23;;
7485;SDS011;3784;54.098;9.998;2022-12-10T01:06:07;55.50;;;32.10;;
7485;SDS011;3784;54.098;9.998;2022-12-10T01:08:35;50.10;;;30.70;;
7485;SDS011;3784;54.098;9.998;2022-12-10T01:11:01;53.60;;;32.50;;
7485;SDS011;3784;54.098;9.998;2022-12-10T01:13:28;55.90;;;32.03;;
7485;SDS011;3784;54.098;9.998;2022-12-10T01:15:54;51.93;;;31.63;;
7485;SDS011;3784;54.098;9.998;2022-12-10T01:18:21;48.13;;;30.67;;
7485;SDS011;3784;54.098;9.998;2022-12-10T01:20:47;51.63;;;32.13;;
7485;SDS011;3784;54.098;9.998;2022-12-10T01:23:14;53.70;;;34.27;;
7485;SDS011;3784;54.098;9.998;2022-12-10T01:25:40;50.70;;;31.00;;
7485;SDS011;3784;54.098;9.998;2022-12-10T01:28:07;52.87;;;32.00;;
7485;SDS011;3784;54.098;9.998;2022-12-10T01:30:33;48.77;;;31.50;;
7485;SDS011;3784;54.098;9.998;2022-12-10T01:33:00;53.20;;;32.47;;
7485;SDS011;3784;54.098;9.998;2022-12-10T01:35:26;47.17;;;31.97;;
7485;SDS011;3784;54.098;9.998;2022-12-10T01:37:52;52.63;;;30.73;;
7485;SDS011;3784;54.098;9.998;2022-12-10T01:40:20;54.23;;;32.60;;
7485;SDS011;3784;54.098;9.998;2022-12-10T01:42:46;50.53;;;31.33;;
7485;SDS011;3784;54.098;9.998;2022-12-10T01:45:13;52.23;;;32.37;;
7485;SDS011;3784;54.098;9.998;2022-12-10T01:47:39;51.33;;;31.13;;
7485;SDS011;3784;54.098;9.998;2022-12-10T01:50:07;51.67;;;32.10;;
7485;SDS011;3784;54.098;9.998;2022-12-10T01:52:35;53.27;;;32.30;;
7485;SDS011;3784;54.098;9.998;2022-12-10T01:55:05;52.13;;;32.17;;
7485;SDS011;3784;54.098;9.998;2022-12-10T01:57:34;47.43;;;30.33;;
7485;SDS011;3784;54.098;9.998;2022-12-10T02:00:02;43.23;;;27.93;;
7485;SDS011;3784;54.098;9.998;2022-12-10T02:05:44;44.17;;;29.03;;
7485;SDS011;3784;54.098;9.998;2022-12-10T02:08:24;47.83;;;31.47;;
7485;SDS011;3784;54.098;9.998;2022-12-10T02:16:38;43.57;;;29.77;;
7485;SDS011;3784;54.098;9.998;2022-12-10T02:19:18;41.07;;;27.83;;
7485;SDS011;3784;54.098;9.998;2022-12-10T02:21:49;41.57;;;28.17;;
7485;SDS011;3784;54.098;9.998;2022-12-10T02:24:20;40.07;;;26.63;;
7485;SDS011;3784;54.098;9.998;2022-12-10T02:29:25;28.80;;;21.27;;
7485;SDS011;3784;54.098;9.998;2022-12-10T02:34:42;29.77;;;22.93;;
7485;SDS011;3784;54.098;9.998;2022-12-10T02:37:45;31.17;;;22.97;;
7485;SDS011;3784;54.098;9.998;2022-12-10T02:40:06;27.37;;;21.97;;
7485;SDS011;3784;54.098;9.998;2022-12-10T02:42:37;24.90;;;20.87;;
7485;SDS011;3784;54.098;9.998;2022-12-10T02:45:04;26.97;;;21.57;;
7485;SDS011;3784;54.098;9.998;2022-12-10T02:47:31;26.17;;;21.73;;
7485;SDS011;3784;54.098;9.998;2022-12-10T02:49:58;26.83;;;21.80;;
7485;SDS011;3784;54.098;9.998;2022-12-10T02:52:25;28.50;;;23.10;;
7485;SDS011;3784;54.098;9.998;2022-12-10T02:54:51;30.13;;;21.87;;
7485;SDS011;3784;54.098;9.998;2022-12-10T03:05:40;26.27;;;21.13;;
7485;SDS011;3784;54.098;9.998;2022-12-10T03:08:17;26.47;;;21.93;;
7485;SDS011;3784;54.098;9.998;2022-12-10T03:13:37;24.33;;;20.30;;
7485;SDS011;3784;54.098;9.998;2022-12-10T03:16:05;26.17;;;20.63;;
7485;SDS011;3784;54.098;9.998;2022-12-10T03:18:34;26.97;;;19.93;;
7485;SDS011;3784;54.098;9.998;2022-12-10T03:21:01;23.43;;;18.83;;
7485;SDS011;3784;54.098;9.998;2022-12-10T03:23:31;22.63;;;18.80;;
7485;SDS011;3784;54.098;9.998;2022-12-10T03:25:59;24.33;;;19.60;;
7485;SDS011;3784;54.098;9.998;2022-12-10T03:28:26;27.13;;;21.33;;
7485;SDS011;3784;54.098;9.998;2022-12-10T03:30:52;24.13;;;20.33;;
7485;SDS011;3784;54.098;9.998;2022-12-10T03:33:20;23.40;;;19.63;;
7485;SDS011;3784;54.098;9.998;2022-12-10T03:35:47;21.27;;;17.60;;
7485;SDS011;3784;54.098;9.998;2022-12-10T03:38:14;24.30;;;19.00;;
7485;SDS011;3784;54.098;9.998;2022-12-10T03:40:41;20.03;;;17.63;;
7485;SDS011;3784;54.098;9.998;2022-12-10T03:43:08;23.97;;;19.10;;
7485;SDS011;3784;54.098;9.998;2022-12-10T03:45:34;21.50;;;17.90;;
7485;SDS011;3784;54.098;9.998;2022-12-10T03:48:00;21.37;;;18.03;;
7485;SDS011;3784;54.098;9.998;2022-12-10T03:50:27;22.80;;;18.93;;
7485;SDS011;3784;54.098;9.998;2022-12-10T03:52:53;22.40;;;18.67;;
7485;SDS011;3784;54.098;9.998;2022-12-10T03:55:20;22.50;;;18.83;;
7485;SDS011;3784;54.098;9.998;2022-12-10T03:57:46;21.80;;;18.17;;
7485;SDS011;3784;54.098;9.998;2022-12-10T04:00:14;24.30;;;19.77;;
7485;SDS011;3784;54.098;9.998;2022-12-10T04:02:41;22.63;;;19.70;;
7485;SDS011;3784;54.098;9.998;2022-12-10T04:05:07;21.07;;;17.90;;
7485;SDS011;3784;54.098;9.998;2022-12-10T04:07:34;22.50;;;19.30;;
7485;SDS011;3784;54.098;9.998;2022-12-10T04:10:01;24.50;;;20.30;;
7485;SDS011;3784;54.098;9.998;2022-12-10T04:12:27;23.40;;;19.57;;
7485;SDS011;3784;54.098;9.998;2022-12-10T04:14:54;25.30;;;19.87;;
7485;SDS011;3784;54.098;9.998;2022-12-10T04:17:53;24.47;;;20.63;;
7485;SDS011;3784;54.098;9.998;2022-12-10T04:20:19;22.77;;;19.00;;
7485;SDS011;3784;54.098;9.998;2022-12-10T04:23:04;21.73;;;18.53;;
7485;SDS011;3784;54.098;9.998;2022-12-10T04:26:03;22.53;;;18.97;;
7485;SDS011;3784;54.098;9.998;2022-12-10T04:28:49;22.43;;;17.87;;
7485;SDS011;3784;54.098;9.998;2022-12-10T04:31:15;20.23;;;17.03;;
7485;SDS011;3784;54.098;9.998;2022-12-10T04:33:43;19.13;;;16.87;;
7485;SDS011;3784;54.098;9.998;2022-12-10T04:36:09;19.27;;;16.67;;
7485;SDS011;3784;54.098;9.998;2022-12-10T04:38:36;20.10;;;16.97;;
7485;SDS011;3784;54.098;9.998;2022-12-10T04:41:02;20.90;;;16.83;;
7485;SDS011;3784;54.098;9.998;2022-12-10T04:43:29;20.57;;;16.70;;
7485;SDS011;3784;54.098;9.998;2022-12-10T04:45:55;19.93;;;17.07;;
7485;SDS011;3784;54.098;9.998;2022-12-10T04:48:22;18.97;;;16.93;;
7485;SDS011;3784;54.098;9.998;2022-12-10T04:50:48;20.97;;;16.07;;
7485;SDS011;3784;54.098;9.998;2022-12-10T04:53:15;20.27;;;17.97;;
7485;SDS011;3784;54.098;9.998;2022-12-10T04:55:41;19.23;;;17.20;;
7485;SDS011;3784;54.098;9.998;2022-12-10T04:58:08;19.20;;;17.20;;
7485;SDS011;3784;54.098;9.998;2022-12-10T05:00:34;19.83;;;17.17;;
7485;SDS011;3784;54.098;9.998;2022-12-10T05:03:01;20.73;;;17.63;;
7485;SDS011;3784;54.098;9.998;2022-12-10T05:05:27;20.73;;;16.93;;
7485;SDS011;3784;54.098;9.998;2022-12-10T05:07:54;18.20;;;16.03;;
7485;SDS011;3784;54.098;9.998;2022-12-10T05:10:20;19.87;;;17.23;;
7485;SDS011;3784;54.098;9.998;2022-12-10T05:12:47;19.40;;;16.13;;
7485;SDS011;3784;54.098;9.998;2022-12-10T05:15:13;18.87;;;16.67;;
7485;SDS011;3784;54.098;9.998;2022-12-10T05:17:39;18.53;;;16.53;;
7485;SDS011;3784;54.098;9.998;2022-12-10T05:20:06;18.83;;;16.73;;
7485;SDS011;3784;54.098;9.998;2022-12-10T05:22:33;20.30;;;17.20;;
7485;SDS011;3784;54.098;9.998;2022-12-10T05:25:18;19.63;;;16.07;;
7485;SDS011;3784;54.098;9.998;2022-12-10T05:27:45;20.40;;;17.03;;
7485;SDS011;3784;54.098;9.998;2022-12-10T05:30:11;18.73;;;16.23;;
7485;SDS011;3784;54.098;9.998;2022-12-10T05:32:38;19.63;;;16.33;;
7485;SDS011;3784;54.098;9.998;2022-12-10T05:35:04;18.73;;;16.73;;
7485;SDS011;3784;54.098;9.998;2022-12-10T05:37:31;20.97;;;18.13;;
7485;SDS011;3784;54.098;9.998;2022-12-10T05:39:58;24.17;;;18.90;;
7485;SDS011;3784;54.098;9.998;2022-12-10T05:42:24;20.80;;;17.93;;
7485;SDS011;3784;54.098;9.998;2022-12-10T05:44:51;21.93;;;18.03;;
7485;SDS011;3784;54.098;9.998;2022-12-10T05:47:17;21.27;;;17.73;;
7485;SDS011;3784;54.098;9.998;2022-12-10T05:49:44;21.27;;;18.87;;
7485;SDS011;3784;54.098;9.998;2022-12-10T05:52:17;22.57;;;18.17;;
7485;SDS011;3784;54.098;9.998;2022-12-10T05:54:43;24.20;;;18.13;;
7485;SDS011;3784;54.098;9.998;2022-12-10T05:57:10;22.90;;;18.47;;
7485;SDS011;3784;54.098;9.998;2022-12-10T05:59:36;22.13;;;18.13;;
7485;SDS011;3784;54.098;9.998;2022-12-10T06:02:03;20.03;;;16.70;;
7485;SDS011;3784;54.098;9.998;2022-12-10T06:04:29;20.87;;;16.60;;
7485;SDS011;3784;54.098;9.998;2022-12-10T06:06:56;21.17;;;16.50;;
7485;SDS011;3784;54.098;9.998;2022-12-10T06:09:22;20.33;;;15.70;;
7485;SDS011;3784;54.098;9.998;2022-12-10T06:11:49;18.87;;;15.17;;
7485;SDS011;3784;54.098;9.998;2022-12-10T06:14:15;18.83;;;15.90;;
7485;SDS011;3784;54.098;9.998;2022-12-10T06:16:42;19.70;;;15.93;;
7485;SDS011;3784;54.098;9.998;2022-12-10T06:19:08;20.00;;;16.17;;
7485;SDS011;3784;54.098;9.998;2022-12-10T06:21:35;19.83;;;15.90;;
7485;SDS011;3784;54.098;9.998;2022-12-10T06:24:01;19.40;;;14.93;;
7485;SDS011;3784;54.098;9.998;2022-12-10T06:26:28;19.67;;;15.73;;
7485;SDS011;3784;54.098;9.998;2022-12-10T06:28:54;20.60;;;14.50;;
7485;SDS011;3784;54.098;9.998;2022-12-10T06:31:22;17.17;;;14.33;;
7485;SDS011;3784;54.098;9.998;2022-12-10T06:33:49;19.83;;;15.40;;
7485;SDS011;3784;54.098;9.998;2022-12-10T06:36:16;21.53;;;16.60;;
7485;SDS011;3784;54.098;9.998;2022-12-10T06:38:44;22.40;;;17.63;;
7485;SDS011;3784;54.098;9.998;2022-12-10T06:41:12;22.23;;;17.83;;
7485;SDS011;3784;54.098;9.998;2022-12-10T06:43:40;23.83;;;17.97;;
7485;SDS011;3784;54.098;9.998;2022-12-10T06:46:07;21.70;;;18.47;;
7485;SDS011;3784;54.098;9.998;2022-12-10T06:48:35;22.30;;;16.90;;
7485;SDS011;3784;54.098;9.998;2022-12-10T06:51:02;18.67;;;15.77;;
7485;SDS011;3784;54.098;9.998;2022-12-10T06:53:30;20.00;;;15.80;;
7485;SDS011;3784;54.098;9.998;2022-12-10T06:55:58;21.13;;;16.83;;
7485;SDS011;3784;54.098;9.998;2022-12-10T06:58:29;18.23;;;15.17;;
7485;SDS011;3784;54.098;9.998;2022-12-10T07:01:09;18.63;;;15.93;;
7485;SDS011;3784;54.098;9.998;2022-12-10T07:03:38;19.63;;;15.90;;
7485;SDS011;3784;54.098;9.998;2022-12-10T07:06:05;18.43;;;15.17;;
7485;SDS011;3784;54.098;9.998;2022-12-10T07:08:33;19.33;;;14.93;;
7485;SDS011;3784;54.098;9.998;2022-12-10T07:11:02;17.13;;;14.60;;
7485;SDS011;3784;54.098;9.998;2022-12-10T07:13:30;16.90;;;14.30;;
7485;SDS011;3784;54.098;9.998;2022-12-10T07:15:57;17.97;;;13.97;;
7485;SDS011;3784;54.098;9.998;2022-12-10T07:18:24;16.87;;;14.37;;
7485;SDS011;3784;54.098;9.998;2022-12-10T07:20:51;15.80;;;13.37;;
7485;SDS011;3784;54.098;9.998;2022-12-10T07:23:17;17.20;;;14.40;;
7485;SDS011;3784;54.098;9.998;2022-12-10T07:25:44;19.43;;;14.60;;
7485;SDS011;3784;54.098;9.998;2022-12-10T07:28:10;15.53;;;13.73;;
7485;SDS011;3784;54.098;9.998;2022-12-10T07:30:37;16.70;;;12.37;;
7485;SDS011;3784;54.098;9.998;2022-12-10T07:33:03;14.70;;;12.07;;
7485;SDS011;3784;54.098;9.998;2022-12-10T07:35:30;15.17;;;12.60;;
7485;SDS011;3784;54.098;9.998;2022-12-10T07:37:56;15.00;;;13.13;;
7485;SDS011;3784;54.098;9.998;2022-12-10T07:40:24;14.20;;;12.43;;
7485;SDS011;3784;54.098;9.998;2022-12-10T07:42:50;15.73;;;12.67;;
7485;SDS011;3784;54.098;9.998;2022-12-10T07:45:16;15.20;;;12.93;;
7485;SDS011;3784;54.098;9.998;2022-12-10T07:47:43;15.37;;;13.13;;
7485;SDS011;3784;54.098;9.998;2022-12-10T07:50:10;16.17;;;14.20;;
7485;SDS011;3784;54.098;9.998;2022-12-10T07:52:37;16.30;;;14.27;;
7485;SDS011;3784;54.098;9.998;2022-12-10T07:55:03;17.37;;;14.97;;
7485;SDS011;3784;54.098;9.998;2022-12-10T07:57:30;19.27;;;15.63;;
7485;SDS011;3784;54.098;9.998;2022-12-10T07:59:57;18.67;;;15.73;;
7485;SDS011;3784;54.098;9.998;2022-12-10T08:02:24;17.67;;;15.57;;
7485;SDS011;3784;54.098;9.998;2022-12-10T08:04:51;20.07;;;16.67;;
7485;SDS011;3784;54.098;9.998;2022-12-10T08:07:17;19.80;;;16.37;;
7485;SDS011;3784;54.098;9.998;2022-12-10T08:09:44;19.00;;;14.93;;
7485;SDS011;3784;54.098;9.998;2022-12-10T08:12:10;18.07;;;15.20;;
7485;SDS011;3784;54.098;9.998;2022-12-10T08:14:37;17.17;;;15.33;;
7485;SDS011;3784;54.098;9.998;2022-12-10T08:17:03;15.77;;;13.40;;
7485;SDS011;3784;54.098;9.998;2022-12-10T08:19:30;16.37;;;13.07;;
7485;SDS011;3784;54.098;9.998;2022-12-10T08:21:57;15.60;;;13.10;;
7485;SDS011;3784;54.098;9.998;2022-12-10T08:24:23;17.27;;;13.43;;
7485;SDS011;3784;54.098;9.998;2022-12-10T08:26:50;15.40;;;12.93;;
7485;SDS011;3784;54.098;9.998;2022-12-10T08:29:16;13.70;;;12.00;;
7485;SDS011;3784;54.098;9.998;2022-12-10T08:31:43;12.97;;;11.50;;
7485;SDS011;3784;54.098;9.998;2022-12-10T08:34:14;14.00;;;12.07;;
7485;SDS011;3784;54.098;9.998;2022-12-10T08:36:42;14.47;;;12.40;;
7485;SDS011;3784;54.098;9.998;2022-12-10T08:39:09;14.63;;;12.20;;
7485;SDS011;3784;54.098;9.998;2022-12-10T08:41:43;14.47;;;12.93;;
7485;SDS011;3784;54.098;9.998;2022-12-10T08:44:11;15.03;;;12.13;;
7485;SDS011;3784;54.098;9.998;2022-12-10T08:46:38;12.50;;;11.13;;
7485;SDS011;3784;54.098;9.998;2022-12-10T08:49:05;14.53;;;12.60;;
7485;SDS011;3784;54.098;9.998;2022-12-10T08:51:33;14.53;;;12.90;;
7485;SDS011;3784;54.098;9.998;2022-12-10T08:53:59;14.83;;;12.33;;
7485;SDS011;3784;54.098;9.998;2022-12-10T08:56:26;12.60;;;11.30;;
7485;SDS011;3784;54.098;9.998;2022-12-10T08:58:52;14.63;;;11.30;;
7485;SDS011;3784;54.098;9.998;2022-12-10T09:01:19;13.13;;;10.50;;
7485;SDS011;3784;54.098;9.998;2022-12-10T09:03:46;12.07;;;10.70;;
7485;SDS011;3784;54.098;9.998;2022-12-10T09:06:13;13.20;;;10.43;;
7485;SDS011;3784;54.098;9.998;2022-12-10T09:08:41;13.10;;;11.73;;
7485;SDS011;3784;54.098;9.998;2022-12-10T09:11:15;12.27;;;10.73;;
7485;SDS011;3784;54.098;9.998;2022-12-10T09:13:44;13.57;;;11.30;;
7485;SDS011;3784;54.098;9.998;2022-12-10T09:16:10;12.53;;;11.10;;
7485;SDS011;3784;54.098;9.998;2022-12-10T09:18:37;11.57;;;10.20;;
7485;SDS011;3784;54.098;9.998;2022-12-10T09:21:05;13.40;;;11.53;;
7485;SDS011;3784;54.098;9.998;2022-12-10T09:23:32;12.47;;;11.13;;
7485;SDS011;3784;54.098;9.998;2022-12-10T09:25:59;15.67;;;13.23;;
7485;SDS011;3784;54.098;9.998;2022-12-10T09:28:26;17.20;;;14.97;;
7485;SDS011;3784;54.098;9.998;2022-12-10T09:30:59;14.30;;;12.70;;
7485;SDS011;3784;54.098;9.998;2022-12-10T09:33:27;13.17;;;11.73;;
7485;SDS011;3784;54.098;9.998;2022-12-10T09:35:54;14.27;;;12.07;;
7485;SDS011;3784;54.098;9.998;2022-12-10T09:38:20;13.03;;;11.67;;
7485;SDS011;3784;54.098;9.998;2022-12-10T09:41:36;13.30;;;11.60;;
7485;SDS011;3784;54.098;9.998;2022-12-10T09:43:49;13.57;;;11.50;;
7485;SDS011;3784;54.098;9.998;2022-12-10T09:49:28;12.97;;;10.67;;
7485;SDS011;3784;54.098;9.998;2022-12-10T09:52:21;11.53;;;10.33;;
7485;SDS011;3784;54.098;9.998;2022-12-10T09:54:52;14.13;;;10.40;;
7485;SDS011;3784;54.098;9.998;2022-12-10T09:57:26;12.13;;;10.50;;
7485;SDS011;3784;54.098;9.998;2022-12-10T10:00:03;11.23;;;10.03;;
7485;SDS011;3784;54.098;9.998;2022-12-10T10:02:47;13.23;;;11.03;;
7485;SDS011;3784;54.098;9.998;2022-12-10T10:08:03;12.23;;;11.00;;
7485;SDS011;3784;54.098;9.998;2022-12-10T10:10:34;13.77;;;11.00;;
7485;SDS011;3784;54.098;9.998;2022-12-10T10:15:36;13.37;;;11.40;;
7485;SDS011;3784;54.098;9.998;2022-12-10T10:18:29;17.40;;;13.27;;
7485;SDS011;3784;54.098;9.998;2022-12-10T10:20:58;14.40;;;12.90;;
7485;SDS011;3784;54.098;9.998;2022-12-10T10:23:32;16.47;;;14.50;;
7485;SDS011;3784;54.098;9.998;2022-12-10T10:25:59;15.00;;;13.10;;
7485;SDS011;3784;54.098;9.998;2022-12-10T10:28:26;15.23;;;13.53;;
7485;SDS011;3784;54.098;9.998;2022-12-10T10:30:57;14.57;;;12.97;;
7485;SDS011;3784;54.098;9.998;2022-12-10T10:33:26;14.70;;;13.00;;
7485;SDS011;3784;54.098;9.998;2022-12-10T10:35:54;14.77;;;12.73;;
7485;SDS011;3784;54.098;9.998;2022-12-10T10:38:23;15.10;;;12.30;;
7485;SDS011;3784;54.098;9.998;2022-12-10T10:41:02;14.37;;;12.27;;
7485;SDS011;3784;54.098;9.998;2022-12-10T10:43:34;15.70;;;12.80;;
7485;SDS011;3784;54.098;9.998;2022-12-10T10:46:11;14.03;;;12.40;;
7485;SDS011;3784;54.098;9.998;2022-12-10T10:48:42;12.97;;;11.67;;
7485;SDS011;3784;54.098;9.998;2022-12-10T10:53:47;14.37;;;11.93;;
7485;SDS011;3784;54.098;9.998;2022-12-10T10:56:21;15.93;;;13.90;;
7485;SDS011;3784;54.098;9.998;2022-12-10T10:59:02;16.53;;;14.27;;
7485;SDS011;3784;54.098;9.998;2022-12-10T11:01:52;21.87;;;16.17;;
7485;SDS011;3784;54.098;9.998;2022-12-10T11:04:45;26.43;;;17.40;;
7485;SDS011;3784;54.098;9.998;2022-12-10T11:07:16;19.50;;;15.90;;
7485;SDS011;3784;54.098;9.998;2022-12-10T11:10:02;22.43;;;18.30;;
7485;SDS011;3784;54.098;9.998;2022-12-10T11:12:36;16.53;;;14.80;;
7485;SDS011;3784;54.098;9.998;2022-12-10T11:17:52;16.10;;;14.30;;
7485;SDS011;3784;54.098;9.998;2022-12-10T11:20:26;16.83;;;14.83;;
7485;SDS011;3784;54.098;9.998;2022-12-10T11:42:43;19.07;;;16.63;;
7485;SDS011;3784;54.098;9.998;2022-12-10T11:45:19;23.63;;;20.17;;
7485;SDS011;3784;54.098;9.998;2022-12-10T12:10:14;20.83;;;16.97;;
7485;SDS011;3784;54.098;9.998;2022-12-10T12:15:42;21.80;;;16.40;;
7485;SDS011;3784;54.098;9.998;2022-12-10T12:18:18;19.63;;;16.53;;
7485;SDS011;3784;54.098;9.998;2022-12-10T12:20:54;40.97;;;29.97;;
7485;SDS011;3784;54.098;9.998;2022-12-10T12:26:24;22.13;;;17.93;;
7485;SDS011;3784;54.098;9.998;2022-12-10T12:28:56;22.30;;;18.80;;
7485;SDS011;3784;54.098;9.998;2022-12-10T12:31:42;19.33;;;16.60;;
7485;SDS011;3784;54.098;9.998;2022-12-10T12:34:26;18.13;;;14.03;;
7485;SDS011;3784;54.098;9.998;2022-12-10T12:37:16;16.97;;;13.40;;
7485;SDS011;3784;54.098;9.998;2022-12-10T12:39:50;16.30;;;14.43;;
7485;SDS011;3784;54.098;9.998;2022-12-10T12:42:35;16.57;;;14.87;;
7485;SDS011;3784;54.098;9.998;2022-12-10T12:45:20;18.20;;;15.30;;
7485;SDS011;3784;54.098;9.998;2022-12-10T12:50:40;17.30;;;14.67;;
7485;SDS011;3784;54.098;9.998;2022-12-10T12:53:11;15.57;;;13.47;;
7485;SDS011;3784;54.098;9.998;2022-12-10T13:01:37;16.07;;;14.17;;
7485;SDS011;3784;54.098;9.998;2022-12-10T13:04:00;15.80;;;14.10;;
7485;SDS011;3784;54.098;9.998;2022-12-10T13:06:30;18.70;;;16.53;;
7485;SDS011;3784;54.098;9.998;2022-12-10T13:14:54;18.47;;;16.57;;
7485;SDS011;3784;54.098;9.998;2022-12-10T13:17:33;21.03;;;18.00;;
7485;SDS011;3784;54.098;9.998;2022-12-10T13:33:46;16.47;;;14.13;;
7485;SDS011;3784;54.098;9.998;2022-12-10T13:47:53;16.80;;;15.10;;
7485;SDS011;3784;54.098;9.998;2022-12-10T13:50:42;15.20;;;13.60;;
7485;SDS011;3784;54.098;9.998;2022-12-10T13:56:02;16.17;;;14.47;;
7485;SDS011;3784;54.098;9.998;2022-12-10T13:58:39;16.93;;;14.50;;
7485;SDS011;3784;54.098;9.998;2022-12-10T14:01:16;17.73;;;14.57;;
7485;SDS011;3784;54.098;9.998;2022-12-10T14:04:02;16.83;;;15.13;;
7485;SDS011;3784;54.098;9.998;2022-12-10T14:06:41;17.20;;;15.33;;
7485;SDS011;3784;54.098;9.998;2022-12-10T14:09:14;17.40;;;15.60;;
7485;SDS011;3784;54.098;9.998;2022-12-10T14:11:56;15.47;;;13.63;;
7485;SDS011;3784;54.098;9.998;2022-12-10T14:14:44;18.20;;;16.13;;
7485;SDS011;3784;54.098;9.998;2022-12-10T14:17:17;15.70;;;14.03;;
7485;SDS011;3784;54.098;9.998;2022-12-10T14:19:47;18.73;;;16.03;;
7485;SDS011;3784;54.098;9.998;2022-12-10T14:22:20;14.07;;;12.57;;
7485;SDS011;3784;54.098;9.998;2022-12-10T14:24:52;14.77;;;13.10;;
7485;SDS011;3784;54.098;9.998;2022-12-10T14:27:25;14.77;;;13.23;;
7485;SDS011;3784;54.098;9.998;2022-12-10T14:32:33;14.53;;;12.87;;
7485;SDS011;3784;54.098;9.998;2022-12-10T14:35:01;20.03;;;17.50;;
7485;SDS011;3784;54.098;9.998;2022-12-10T14:37:31;18.77;;;16.77;;
7485;SDS011;3784;54.098;9.998;2022-12-10T14:40:01;17.17;;;15.40;;
7485;SDS011;3784;54.098;9.998;2022-12-10T14:42:28;15.40;;;13.80;;
7485;SDS011;3784;54.098;9.998;2022-12-10T14:44:58;18.00;;;16.10;;
7485;SDS011;3784;54.098;9.998;2022-12-10T14:47:27;24.00;;;21.00;;
7485;SDS011;3784;54.098;9.998;2022-12-10T14:50:00;24.10;;;21.10;;
7485;SDS011;3784;54.098;9.998;2022-12-10T14:52:33;18.67;;;16.40;;
7485;SDS011;3784;54.098;9.998;2022-12-10T14:55:05;27.63;;;24.73;;
7485;SDS011;3784;54.098;9.998;2022-12-10T14:57:38;25.37;;;22.23;;
7485;SDS011;3784;54.098;9.998;2022-12-10T15:00:18;28.10;;;23.97;;
7485;SDS011;3784;54.098;9.998;2022-12-10T15:02:54;22.13;;;19.53;;
7485;SDS011;3784;54.098;9.998;2022-12-10T15:05:25;22.93;;;20.50;;
7485;SDS011;3784;54.098;9.998;2022-12-10T15:07:55;19.30;;;16.97;;
7485;SDS011;3784;54.098;9.998;2022-12-10T15:10:25;17.87;;;16.00;;
7485;SDS011;3784;54.098;9.998;2022-12-10T15:12:55;19.10;;;17.10;;
7485;SDS011;3784;54.098;9.998;2022-12-10T15:18:16;22.53;;;16.33;;
7485;SDS011;3784;54.098;9.998;2022-12-10T15:20:52;17.53;;;15.43;;
7485;SDS011;3784;54.098;9.998;2022-12-10T15:23:31;17.70;;;15.40;;
7485;SDS011;3784;54.098;9.998;2022-12-10T15:26:00;18.30;;;15.90;;
7485;SDS011;3784;54.098;9.998;2022-12-10T15:28:37;17.20;;;15.40;;
7485;SDS011;3784;54.098;9.998;2022-12-10T15:33:43;17.47;;;14.93;;
7485;SDS011;3784;54.098;9.998;2022-12-10T15:36:20;22.10;;;19.77;;
7485;SDS011;3784;54.098;9.998;2022-12-10T15:41:44;18.43;;;16.43;;
7485;SDS011;3784;54.098;9.998;2022-12-10T15:46:59;19.23;;;16.77;;
7485;SDS011;3784;54.098;9.998;2022-12-10T15:49:31;19.10;;;16.67;;
7485;SDS011;3784;54.098;9.998;2022-12-10T15:52:02;17.63;;;14.77;;
7485;SDS011;3784;54.098;9.998;2022-12-10T15:54:35;15.47;;;13.70;;
7485;SDS011;3784;54.098;9.998;2022-12-10T15:57:11;16.00;;;13.90;;
7485;SDS011;3784;54.098;9.998;2022-12-10T15:59:41;16.47;;;14.53;;
7485;SDS011;3784;54.098;9.998;2022-12-10T16:02:27;13.87;;;10.50;;
7485;SDS011;3784;54.098;9.998;2022-12-10T16:04:56;11.43;;;10.23;;
7485;SDS011;3784;54.098;9.998;2022-12-10T16:07:27;16.00;;;13.83;;
7485;SDS011;3784;54.098;9.998;2022-12-10T16:09:57;16.20;;;14.50;;
7485;SDS011;3784;54.098;9.998;2022-12-10T16:12:24;16.03;;;14.33;;
7485;SDS011;3784;54.098;9.998;2022-12-10T16:14:53;15.53;;;13.87;;
7485;SDS011;3784;54.098;9.998;2022-12-10T16:17:29;17.33;;;15.47;;
7485;SDS011;3784;54.098;9.998;2022-12-10T16:20:00;17.43;;;13.93;;
7485;SDS011;3784;54.098;9.998;2022-12-10T16:22:39;12.00;;;10.80;;
7485;SDS011;3784;54.098;9.998;2022-12-10T16:25:12;10.80;;;9.70;;
7485;SDS011;3784;54.098;9.998;2022-12-10T16:27:42;12.50;;;10.67;;
7485;SDS011;3784;54.098;9.998;2022-12-10T16:30:18;14.13;;;12.63;;
7485;SDS011;3784;54.098;9.998;2022-12-10T16:32:52;14.03;;;12.20;;
7485;SDS011;3784;54.098;9.998;2022-12-10T16:35:21;18.37;;;15.87;;
7485;SDS011;3784;54.098;9.998;2022-12-10T16:37:48;16.53;;;14.10;;
7485;SDS011;3784;54.098;9.998;2022-12-10T16:40:17;18.30;;;15.00;;
7485;SDS011;3784;54.098;9.998;2022-12-10T16:42:44;16.57;;;14.23;;
7485;SDS011;3784;54.098;9.998;2022-12-10T16:47:45;14.63;;;13.13;;
7485;SDS011;3784;54.098;9.998;2022-12-10T16:50:13;14.67;;;12.97;;
7485;SDS011;3784;54.098;9.998;2022-12-10T16:52:40;14.80;;;13.30;;
7485;SDS011;3784;54.098;9.998;2022-12-10T16:55:11;16.93;;;14.23;;
7485;SDS011;3784;54.098;9.998;2022-12-10T16:57:42;16.80;;;14.97;;
7485;SDS011;3784;54.098;9.998;2022-12-10T17:00:15;16.67;;;14.30;;
7485;SDS011;3784;54.098;9.998;2022-12-10T17:02:43;16.10;;;14.40;;
7485;SDS011;3784;54.098;9.998;2022-12-10T17:05:17;17.20;;;14.57;;
7485;SDS011;3784;54.098;9.998;2022-12-10T17:07:56;19.70;;;14.80;;
7485;SDS011;3784;54.098;9.998;2022-12-10T17:10:22;17.43;;;14.83;;
7485;SDS011;3784;54.098;9.998;2022-12-10T17:13:13;16.20;;;14.07;;
7485;SDS011;3784;54.098;9.998;2022-12-10T17:15:41;17.90;;;15.17;;
7485;SDS011;3784;54.098;9.998;2022-12-10T17:18:11;23.43;;;18.83;;
7485;SDS011;3784;54.098;9.998;2022-12-10T17:20:39;25.27;;;20.60;;
7485;SDS011;3784;54.098;9.998;2022-12-10T17:23:06;19.93;;;16.17;;
7485;SDS011;3784;54.098;9.998;2022-12-10T17:25:32;15.83;;;14.13;;
7485;SDS011;3784;54.098;9.998;2022-12-10T17:27:58;19.83;;;16.57;;
7485;SDS011;3784;54.098;9.998;2022-12-10T17:30:25;22.50;;;17.77;;
7485;SDS011;3784;54.098;9.998;2022-12-10T17:32:52;19.43;;;16.10;;